sensor_id;sensor_type;location;lat;lon;timestamp;P1;durP1;ratioP1;P2;durP2;ratioP2
26780;SDS011;14366;49.184;8.054;2023-06-22T00:01:26;7.13;;;5.10;;
26780;SDS011;14366;49.184;8.054;2023-06-22T00:06:47;5.55;;;4.95;;
26780;SDS011;14366;49.184;8.054;2023-06-22T00:12:23;5.45;;;4.35;;
26780;SDS011;14366;49.184;8.054;2023-06-22T00:17:56;6.72;;;4.35;;
26780;SDS011;14366;49.184;8.054;2023-06-22T00:23:31;9.77;;;5.82;;
26780;SDS011;14366;49.184;8.054;2023-06-22T00:29:07;9.85;;;5.50;;
26780;SDS011;14366;49.184;8.054;2023-06-22T00:34:42;8.63;;;5.80;;
26780;SDS011;14366;49.184;8.054;2023-06-22T00:40:17;6.25;;;5.12;;
26780;SDS011;14366;49.184;8.054;2023-06-22T00:45:36;8.55;;;6.03;;
26780;SDS011;14366;49.184;8.054;2023-06-22T00:51:11;6.70;;;5.50;;
26780;SDS011;14366;49.184;8.054;2023-06-22T00:56:46;9.88;;;5.90;;
26780;SDS011;14366;49.184;8.054;2023-06-22T01:02:08;6.22;;;5.28;;
26780;SDS011;14366;49.184;8.054;2023-06-22T01:07:44;6.03;;;5.43;;
26780;SDS011;14366;49.184;8.054;2023-06-22T01:13:18;7.23;;;5.75;;
26780;SDS011;14366;49.184;8.054;2023-06-22T01:23:59;7.50;;;5.95;;
26780;SDS011;14366;49.184;8.054;2023-06-22T01:34:35;6.68;;;5.43;;
26780;SDS011;14366;49.184;8.054;2023-06-22T01:45:12;7.47;;;5.45;;
26780;SDS011;14366;49.184;8.054;2023-06-22T01:50:48;7.90;;;5.40;;
26780;SDS011;14366;49.184;8.054;2023-06-22T01:56:23;7.65;;;5.87;;
26780;SDS011;14366;49.184;8.054;2023-06-22T02:08:10;6.90;;;5.32;;
26780;SDS011;14366;49.184;8.054;2023-06-22T02:13:45;8.23;;;5.18;;
26780;SDS011;14366;49.184;8.054;2023-06-22T02:19:22;10.17;;;5.83;;
26780;SDS011;14366;49.184;8.054;2023-06-22T02:24:59;7.15;;;6.00;;
26780;SDS011;14366;49.184;8.054;2023-06-22T02:35:39;6.14;;;5.44;;
26780;SDS011;14366;49.184;8.054;2023-06-22T02:41:17;8.00;;;6.28;;
26780;SDS011;14366;49.184;8.054;2023-06-22T02:46:51;6.70;;;5.90;;
26780;SDS011;14366;49.184;8.054;2023-06-22T02:52:24;6.87;;;6.18;;
26780;SDS011;14366;49.184;8.054;2023-06-22T02:58:02;7.03;;;6.32;;
26780;SDS011;14366;49.184;8.054;2023-06-22T03:03:37;7.78;;;6.45;;
26780;SDS011;14366;49.184;8.054;2023-06-22T03:09:12;9.17;;;6.53;;
26780;SDS011;14366;49.184;8.054;2023-06-22T03:14:34;7.45;;;6.60;;
26780;SDS011;14366;49.184;8.054;2023-06-22T03:20:09;10.65;;;6.57;;
26780;SDS011;14366;49.184;8.054;2023-06-22T03:25:45;7.45;;;6.60;;
26780;SDS011;14366;49.184;8.054;2023-06-22T03:31:07;9.38;;;6.07;;
26780;SDS011;14366;49.184;8.054;2023-06-22T03:36:41;7.95;;;6.20;;
26780;SDS011;14366;49.184;8.054;2023-06-22T03:42:17;9.70;;;6.97;;
26780;SDS011;14366;49.184;8.054;2023-06-22T03:47:55;9.10;;;7.12;;
26780;SDS011;14366;49.184;8.054;2023-06-22T03:53:30;9.70;;;7.60;;
26780;SDS011;14366;49.184;8.054;2023-06-22T03:59:05;8.75;;;7.15;;
26780;SDS011;14366;49.184;8.054;2023-06-22T04:04:27;9.68;;;7.35;;
26780;SDS011;14366;49.184;8.054;2023-06-22T04:10:03;11.60;;;7.65;;
26780;SDS011;14366;49.184;8.054;2023-06-22T04:15:23;9.14;;;8.18;;
26780;SDS011;14366;49.184;8.054;2023-06-22T04:20:33;11.60;;;9.20;;
26780;SDS011;14366;49.184;8.054;2023-06-22T04:26:06;11.30;;;10.05;;
26780;SDS011;14366;49.184;8.054;2023-06-22T04:31:43;12.60;;;10.60;;
26780;SDS011;14366;49.184;8.054;2023-06-22T04:37:19;13.20;;;10.90;;
26780;SDS011;14366;49.184;8.054;2023-06-22T04:42:54;11.30;;;10.18;;
26780;SDS011;14366;49.184;8.054;2023-06-22T04:53:34;12.45;;;11.15;;
26780;SDS011;14366;49.184;8.054;2023-06-22T04:59:09;12.37;;;10.90;;
26780;SDS011;14366;49.184;8.054;2023-06-22T05:04:45;11.75;;;10.65;;
26780;SDS011;14366;49.184;8.054;2023-06-22T05:10:06;12.18;;;10.55;;
26780;SDS011;14366;49.184;8.054;2023-06-22T05:15:42;14.28;;;10.82;;
26780;SDS011;14366;49.184;8.054;2023-06-22T05:21:17;12.10;;;10.20;;
26780;SDS011;14366;49.184;8.054;2023-06-22T05:26:53;11.83;;;10.43;;
26780;SDS011;14366;49.184;8.054;2023-06-22T05:32:28;11.65;;;9.43;;
26780;SDS011;14366;49.184;8.054;2023-06-22T05:37:49;13.20;;;9.20;;
26780;SDS011;14366;49.184;8.054;2023-06-22T05:43:10;11.70;;;10.15;;
26780;SDS011;14366;49.184;8.054;2023-06-22T05:48:43;10.90;;;8.95;;
26780;SDS011;14366;49.184;8.054;2023-06-22T05:54:18;12.27;;;10.20;;
26780;SDS011;14366;49.184;8.054;2023-06-22T05:59:40;13.13;;;10.07;;
26780;SDS011;14366;49.184;8.054;2023-06-22T06:05:15;10.40;;;9.32;;
26780;SDS011;14366;49.184;8.054;2023-06-22T06:10:50;10.77;;;8.93;;
26780;SDS011;14366;49.184;8.054;2023-06-22T06:16:26;10.58;;;9.48;;
26780;SDS011;14366;49.184;8.054;2023-06-22T06:22:01;10.27;;;9.23;;
26780;SDS011;14366;49.184;8.054;2023-06-22T06:32:41;10.38;;;9.17;;
26780;SDS011;14366;49.184;8.054;2023-06-22T06:38:16;10.35;;;9.20;;
26780;SDS011;14366;49.184;8.054;2023-06-22T06:43:37;11.18;;;9.82;;
26780;SDS011;14366;49.184;8.054;2023-06-22T06:48:56;11.68;;;9.70;;
26780;SDS011;14366;49.184;8.054;2023-06-22T06:54:31;11.80;;;9.78;;
26780;SDS011;14366;49.184;8.054;2023-06-22T06:59:52;12.80;;;9.90;;
26780;SDS011;14366;49.184;8.054;2023-06-22T07:05:14;13.67;;;9.93;;
26780;SDS011;14366;49.184;8.054;2023-06-22T07:10:47;11.62;;;9.56;;
26780;SDS011;14366;49.184;8.054;2023-06-22T07:16:22;10.92;;;9.56;;
26780;SDS011;14366;49.184;8.054;2023-06-22T07:21:41;12.46;;;10.08;;
26780;SDS011;14366;49.184;8.054;2023-06-22T07:27:16;11.30;;;9.30;;
26780;SDS011;14366;49.184;8.054;2023-06-22T07:32:52;10.70;;;9.10;;
26780;SDS011;14366;49.184;8.054;2023-06-22T07:38:25;11.82;;;8.98;;
26780;SDS011;14366;49.184;8.054;2023-06-22T07:44:01;9.88;;;8.82;;
26780;SDS011;14366;49.184;8.054;2023-06-22T07:49:35;9.83;;;8.37;;
26780;SDS011;14366;49.184;8.054;2023-06-22T07:55:11;13.30;;;8.56;;
26780;SDS011;14366;49.184;8.054;2023-06-22T08:05:51;14.40;;;7.90;;
26780;SDS011;14366;49.184;8.054;2023-06-22T08:11:28;11.50;;;8.38;;
26780;SDS011;14366;49.184;8.054;2023-06-22T08:17:03;9.40;;;6.65;;
26780;SDS011;14366;49.184;8.054;2023-06-22T08:22:24;12.46;;;8.40;;
26780;SDS011;14366;49.184;8.054;2023-06-22T08:28:00;9.77;;;7.43;;
26780;SDS011;14366;49.184;8.054;2023-06-22T08:33:35;8.38;;;7.18;;
26780;SDS011;14366;49.184;8.054;2023-06-22T08:38:55;8.95;;;7.47;;
26780;SDS011;14366;49.184;8.054;2023-06-22T08:44:32;7.00;;;6.10;;
26780;SDS011;14366;49.184;8.054;2023-06-22T08:50:06;9.50;;;6.90;;
26780;SDS011;14366;49.184;8.054;2023-06-22T09:00:48;7.00;;;5.90;;
26780;SDS011;14366;49.184;8.054;2023-06-22T09:11:26;11.10;;;6.80;;
26780;SDS011;14366;49.184;8.054;2023-06-22T09:17:03;9.74;;;7.20;;
26780;SDS011;14366;49.184;8.054;2023-06-22T09:22:40;11.77;;;6.80;;
26780;SDS011;14366;49.184;8.054;2023-06-22T09:28:15;7.65;;;6.65;;
26780;SDS011;14366;49.184;8.054;2023-06-22T09:33:52;8.67;;;6.30;;
26780;SDS011;14366;49.184;8.054;2023-06-22T09:39:26;8.70;;;6.10;;
26780;SDS011;14366;49.184;8.054;2023-06-22T09:44:58;10.16;;;6.84;;
26780;SDS011;14366;49.184;8.054;2023-06-22T09:50:35;8.02;;;6.62;;
26780;SDS011;14366;49.184;8.054;2023-06-22T09:56:09;8.77;;;6.57;;
26780;SDS011;14366;49.184;8.054;2023-06-22T10:01:31;11.07;;;6.80;;
26780;SDS011;14366;49.184;8.054;2023-06-22T10:07:08;10.05;;;6.57;;
26780;SDS011;14366;49.184;8.054;2023-06-22T10:12:45;13.40;;;7.80;;
26780;SDS011;14366;49.184;8.054;2023-06-22T10:18:18;9.70;;;6.90;;
26780;SDS011;14366;49.184;8.054;2023-06-22T10:23:55;9.75;;;6.20;;
26780;SDS011;14366;49.184;8.054;2023-06-22T10:29:30;9.52;;;7.16;;
26780;SDS011;14366;49.184;8.054;2023-06-22T10:34:50;8.80;;;7.10;;
26780;SDS011;14366;49.184;8.054;2023-06-22T10:40:12;10.35;;;6.55;;
26780;SDS011;14366;49.184;8.054;2023-06-22T10:45:47;9.20;;;6.60;;
26780;SDS011;14366;49.184;8.054;2023-06-22T10:51:07;8.48;;;5.90;;
26780;SDS011;14366;49.184;8.054;2023-06-22T10:56:29;7.03;;;5.68;;
26780;SDS011;14366;49.184;8.054;2023-06-22T11:07:08;10.52;;;6.07;;
26780;SDS011;14366;49.184;8.054;2023-06-22T11:17:48;8.48;;;5.15;;
26780;SDS011;14366;49.184;8.054;2023-06-22T11:23:20;8.62;;;5.52;;
26780;SDS011;14366;49.184;8.054;2023-06-22T11:28:41;9.38;;;6.00;;
26780;SDS011;14366;49.184;8.054;2023-06-22T11:34:17;8.80;;;5.70;;
26780;SDS011;14366;49.184;8.054;2023-06-22T11:39:54;10.45;;;6.00;;
26780;SDS011;14366;49.184;8.054;2023-06-22T11:45:29;11.48;;;6.20;;
26780;SDS011;14366;49.184;8.054;2023-06-22T11:50:50;8.00;;;6.00;;
26780;SDS011;14366;49.184;8.054;2023-06-22T11:56:25;9.90;;;6.10;;
26780;SDS011;14366;49.184;8.054;2023-06-22T12:01:46;8.05;;;5.57;;
26780;SDS011;14366;49.184;8.054;2023-06-22T12:07:07;7.95;;;6.15;;
26780;SDS011;14366;49.184;8.054;2023-06-22T12:12:42;9.32;;;6.10;;
26780;SDS011;14366;49.184;8.054;2023-06-22T12:18:02;10.40;;;5.75;;
26780;SDS011;14366;49.184;8.054;2023-06-22T12:23:24;9.07;;;5.93;;
26780;SDS011;14366;49.184;8.054;2023-06-22T12:28:59;12.32;;;6.06;;
26780;SDS011;14366;49.184;8.054;2023-06-22T12:34:19;10.60;;;6.60;;
26780;SDS011;14366;49.184;8.054;2023-06-22T12:39:41;10.55;;;6.40;;
26780;SDS011;14366;49.184;8.054;2023-06-22T12:45:16;10.85;;;6.07;;
26780;SDS011;14366;49.184;8.054;2023-06-22T12:50:37;10.07;;;6.22;;
26780;SDS011;14366;49.184;8.054;2023-06-22T12:56:13;6.00;;;5.40;;
26780;SDS011;14366;49.184;8.054;2023-06-22T13:06:52;11.42;;;5.90;;
26780;SDS011;14366;49.184;8.054;2023-06-22T13:17:19;9.48;;;5.82;;
26780;SDS011;14366;49.184;8.054;2023-06-22T13:22:54;9.25;;;6.03;;
26780;SDS011;14366;49.184;8.054;2023-06-22T13:33:20;11.37;;;5.70;;
26780;SDS011;14366;49.184;8.054;2023-06-22T13:43:59;10.85;;;5.47;;
26780;SDS011;14366;49.184;8.054;2023-06-22T13:49:35;12.23;;;5.95;;
26780;SDS011;14366;49.184;8.054;2023-06-22T14:00:14;17.10;;;8.45;;
26780;SDS011;14366;49.184;8.054;2023-06-22T14:10:41;16.40;;;7.50;;
26780;SDS011;14366;49.184;8.054;2023-06-22T14:16:17;12.85;;;7.28;;
26780;SDS011;14366;49.184;8.054;2023-06-22T14:21:52;16.85;;;7.63;;
26780;SDS011;14366;49.184;8.054;2023-06-22T14:27:14;12.98;;;7.68;;
26780;SDS011;14366;49.184;8.054;2023-06-22T14:32:49;14.55;;;7.90;;
26780;SDS011;14366;49.184;8.054;2023-06-22T14:38:09;13.02;;;7.57;;
26780;SDS011;14366;49.184;8.054;2023-06-22T14:43:32;17.75;;;8.50;;
26780;SDS011;14366;49.184;8.054;2023-06-22T14:49:08;14.10;;;8.13;;
26780;SDS011;14366;49.184;8.054;2023-06-22T14:54:28;16.80;;;8.25;;
26780;SDS011;14366;49.184;8.054;2023-06-22T15:00:06;13.20;;;7.70;;
26780;SDS011;14366;49.184;8.054;2023-06-22T15:05:41;12.93;;;7.12;;
26780;SDS011;14366;49.184;8.054;2023-06-22T15:11:16;9.90;;;5.32;;
26780;SDS011;14366;49.184;8.054;2023-06-22T15:21:57;9.80;;;6.37;;
26780;SDS011;14366;49.184;8.054;2023-06-22T15:32:37;11.80;;;6.32;;
26780;SDS011;14366;49.184;8.054;2023-06-22T15:37:59;9.15;;;5.75;;
26780;SDS011;14366;49.184;8.054;2023-06-22T15:43:33;12.90;;;6.50;;
26780;SDS011;14366;49.184;8.054;2023-06-22T15:48:54;10.77;;;6.07;;
26780;SDS011;14366;49.184;8.054;2023-06-22T15:54:31;9.02;;;6.57;;
26780;SDS011;14366;49.184;8.054;2023-06-22T16:00:06;11.80;;;6.78;;
26780;SDS011;14366;49.184;8.054;2023-06-22T16:10:47;13.55;;;7.10;;
26780;SDS011;14366;49.184;8.054;2023-06-22T16:16:21;13.55;;;6.40;;
26780;SDS011;14366;49.184;8.054;2023-06-22T16:27:02;10.68;;;5.18;;
26780;SDS011;14366;49.184;8.054;2023-06-22T16:37:42;8.58;;;3.96;;
26780;SDS011;14366;49.184;8.054;2023-06-22T16:48:09;9.00;;;3.10;;
26780;SDS011;14366;49.184;8.054;2023-06-22T16:53:44;4.60;;;2.85;;
26780;SDS011;14366;49.184;8.054;2023-06-22T17:04:24;10.10;;;3.08;;
26780;SDS011;14366;49.184;8.054;2023-06-22T17:09:56;7.35;;;3.08;;
26780;SDS011;14366;49.184;8.054;2023-06-22T17:15:32;8.75;;;3.55;;
26780;SDS011;14366;49.184;8.054;2023-06-22T17:21:08;7.87;;;2.97;;
26780;SDS011;14366;49.184;8.054;2023-06-22T17:26:47;6.30;;;2.90;;
26780;SDS011;14366;49.184;8.054;2023-06-22T17:32:22;8.35;;;3.00;;
26780;SDS011;14366;49.184;8.054;2023-06-22T17:37:48;6.65;;;3.28;;
26780;SDS011;14366;49.184;8.054;2023-06-22T17:43:22;6.85;;;2.90;;
26780;SDS011;14366;49.184;8.054;2023-06-22T17:48:45;6.85;;;3.00;;
26780;SDS011;14366;49.184;8.054;2023-06-22T17:54:22;7.02;;;2.82;;
26780;SDS011;14366;49.184;8.054;2023-06-22T17:59:57;6.25;;;2.70;;
26780;SDS011;14366;49.184;8.054;2023-06-22T18:05:32;4.10;;;2.90;;
26780;SDS011;14366;49.184;8.054;2023-06-22T18:16:12;5.48;;;2.94;;
26780;SDS011;14366;49.184;8.054;2023-06-22T18:21:48;9.47;;;3.05;;
26780;SDS011;14366;49.184;8.054;2023-06-22T18:27:23;5.65;;;2.35;;
26780;SDS011;14366;49.184;8.054;2023-06-22T18:32:59;2.37;;;1.73;;
26780;SDS011;14366;49.184;8.054;2023-06-22T18:38:34;3.62;;;1.65;;
26780;SDS011;14366;49.184;8.054;2023-06-22T18:44:17;4.15;;;1.70;;
26780;SDS011;14366;49.184;8.054;2023-06-22T18:49:50;3.67;;;1.70;;
26780;SDS011;14366;49.184;8.054;2023-06-22T18:55:25;2.47;;;1.40;;
26780;SDS011;14366;49.184;8.054;2023-06-22T19:00:45;1.72;;;1.28;;
26780;SDS011;14366;49.184;8.054;2023-06-22T19:12:19;2.60;;;1.23;;
26780;SDS011;14366;49.184;8.054;2023-06-22T19:17:53;1.40;;;1.00;;
26780;SDS011;14366;49.184;8.054;2023-06-22T19:23:28;1.80;;;1.08;;
26780;SDS011;14366;49.184;8.054;2023-06-22T19:29:14;1.95;;;1.00;;
26780;SDS011;14366;49.184;8.054;2023-06-22T19:34:46;1.35;;;1.20;;
26780;SDS011;14366;49.184;8.054;2023-06-22T19:40:22;3.08;;;1.23;;
26780;SDS011;14366;49.184;8.054;2023-06-22T19:45:43;2.33;;;1.20;;
26780;SDS011;14366;49.184;8.054;2023-06-22T19:51:19;1.60;;;1.30;;
26780;SDS011;14366;49.184;8.054;2023-06-22T19:56:54;6.28;;;1.42;;
26780;SDS011;14366;49.184;8.054;2023-06-22T20:02:15;1.85;;;1.15;;
26780;SDS011;14366;49.184;8.054;2023-06-22T20:07:50;1.42;;;1.30;;
26780;SDS011;14366;49.184;8.054;2023-06-22T20:13:25;4.10;;;1.40;;
26780;SDS011;14366;49.184;8.054;2023-06-22T20:19:08;2.20;;;1.30;;
26780;SDS011;14366;49.184;8.054;2023-06-22T20:30:11;4.47;;;1.58;;
26780;SDS011;14366;49.184;8.054;2023-06-22T20:41:06;2.30;;;1.50;;
26780;SDS011;14366;49.184;8.054;2023-06-22T20:46:41;2.30;;;1.33;;
26780;SDS011;14366;49.184;8.054;2023-06-22T20:52:01;3.37;;;1.30;;
26780;SDS011;14366;49.184;8.054;2023-06-22T20:57:23;2.85;;;1.50;;
26780;SDS011;14366;49.184;8.054;2023-06-22T21:02:59;1.60;;;1.50;;
26780;SDS011;14366;49.184;8.054;2023-06-22T21:08:34;3.28;;;1.75;;
26780;SDS011;14366;49.184;8.054;2023-06-22T21:14:08;1.70;;;1.35;;
26780;SDS011;14366;49.184;8.054;2023-06-22T21:19:44;1.73;;;1.60;;
26780;SDS011;14366;49.184;8.054;2023-06-22T21:25:20;2.55;;;1.80;;
26780;SDS011;14366;49.184;8.054;2023-06-22T21:30:58;2.20;;;1.62;;
26780;SDS011;14366;49.184;8.054;2023-06-22T21:36:33;2.00;;;1.55;;
26780;SDS011;14366;49.184;8.054;2023-06-22T21:42:08;2.00;;;1.70;;
26780;SDS011;14366;49.184;8.054;2023-06-22T21:47:45;2.10;;;1.90;;
26780;SDS011;14366;49.184;8.054;2023-06-22T21:58:24;2.67;;;2.00;;
26780;SDS011;14366;49.184;8.054;2023-06-22T22:04:01;3.38;;;2.10;;
26780;SDS011;14366;49.184;8.054;2023-06-22T22:09:36;4.20;;;2.05;;
26780;SDS011;14366;49.184;8.054;2023-06-22T22:15:11;2.23;;;1.97;;
26780;SDS011;14366;49.184;8.054;2023-06-22T22:20:33;3.90;;;2.00;;
26780;SDS011;14366;49.184;8.054;2023-06-22T22:26:07;2.63;;;2.23;;
26780;SDS011;14366;49.184;8.054;2023-06-22T22:31:43;2.00;;;1.80;;
26780;SDS011;14366;49.184;8.054;2023-06-22T22:37:20;2.00;;;1.60;;
26780;SDS011;14366;49.184;8.054;2023-06-22T22:42:55;1.75;;;1.50;;
26780;SDS011;14366;49.184;8.054;2023-06-22T22:48:15;1.55;;;1.45;;
26780;SDS011;14366;49.184;8.054;2023-06-22T22:53:37;3.03;;;1.47;;
26780;SDS011;14366;49.184;8.054;2023-06-22T22:59:12;2.65;;;1.35;;
26780;SDS011;14366;49.184;8.054;2023-06-22T23:04:53;1.80;;;1.50;;
26780;SDS011;14366;49.184;8.054;2023-06-22T23:10:27;2.85;;;1.50;;
26780;SDS011;14366;49.184;8.054;2023-06-22T23:16:03;1.60;;;1.40;;
26780;SDS011;14366;49.184;8.054;2023-06-22T23:21:39;1.85;;;1.65;;
26780;SDS011;14366;49.184;8.054;2023-06-22T23:27:01;3.40;;;2.20;;
26780;SDS011;14366;49.184;8.054;2023-06-22T23:32:35;3.00;;;2.40;;
26780;SDS011;14366;49.184;8.054;2023-06-22T23:37:55;3.10;;;2.80;;
26780;SDS011;14366;49.184;8.054;2023-06-22T23:43:17;3.43;;;3.07;;
26780;SDS011;14366;49.184;8.054;2023-06-22T23:48:51;3.90;;;3.50;;
26780;SDS011;14366;49.184;8.054;2023-06-22T23:54:13;3.83;;;3.42;;
26780;SDS011;14366;49.184;8.054;2023-06-22T23:59:49;3.20;;;2.90;;
